createdAt,value
2023-05-18T00:00:16.475Z,101080.84
2023-05-18T00:02:43.365Z,101071.69
2023-05-18T00:05:12.852Z,101085.25
2023-05-18T00:07:41.267Z,101077.59
2023-05-18T00:10:08.714Z,101072.19
2023-05-18T00:12:35.405Z,101069.47
2023-05-18T00:15:02.661Z,101068.28
2023-05-18T00:17:29.339Z,101063.03
2023-05-18T00:19:58.608Z,101070.63
2023-05-18T00:22:26.390Z,101070.63
2023-05-18T00:24:53.085Z,101074.03
2023-05-18T00:27:19.770Z,101075.75
2023-05-18T00:29:46.432Z,101079.44
2023-05-18T00:32:12.986Z,101070.81
2023-05-18T00:34:39.513Z,101079.34
2023-05-18T00:37:06.185Z,101079.16
2023-05-18T00:39:32.788Z,101079.34
2023-05-18T00:41:59.408Z,101077.28
2023-05-18T00:44:26.139Z,101074.41
2023-05-18T00:46:52.738Z,101066.59
2023-05-18T00:49:19.779Z,101068.97
2023-05-18T00:51:47.053Z,101064.91
2023-05-18T00:54:14.693Z,101066.25
2023-05-18T00:56:42.137Z,101074.19
2023-05-18T00:59:12.354Z,101077.09
2023-05-18T01:04:02.398Z,101075.38
2023-05-18T01:06:36.058Z,101073.34
2023-05-18T01:09:06.981Z,101075.91
2023-05-18T01:11:55.891Z,101078.28
2023-05-18T01:14:29.922Z,101073.72
2023-05-18T01:17:20.655Z,101067.63
2023-05-18T01:19:56.534Z,101083.38
2023-05-18T01:22:32.133Z,101077.59
2023-05-18T01:25:05.119Z,101065.91
2023-05-18T01:27:37.557Z,101073.38
2023-05-18T01:30:08.647Z,101069.97
2023-05-18T01:32:42.617Z,101069.84
2023-05-18T01:35:09.564Z,101076.06
2023-05-18T01:37:36.353Z,101067.63
2023-05-18T01:40:05.577Z,101066.44
2023-05-18T01:42:36.341Z,101076.75
2023-05-18T01:45:09.908Z,101073.72
2023-05-18T01:47:38.318Z,101063.72
2023-05-18T01:50:15.586Z,101072.34
2023-05-18T01:53:24.134Z,101067.63
2023-05-18T01:55:54.224Z,101065.78
2023-05-18T01:58:22.650Z,101061.88
2023-05-18T02:00:50.251Z,101071.19
2023-05-18T02:03:17.074Z,101058.13
2023-05-18T02:05:43.695Z,101066.25
2023-05-18T02:08:10.324Z,101060.16
2023-05-18T02:10:36.990Z,101056.09
2023-05-18T02:13:03.681Z,101062.53
2023-05-18T02:15:30.511Z,101057.09
2023-05-18T02:17:58.358Z,101064.22
2023-05-18T02:20:26.926Z,101057.09
2023-05-18T02:22:54.394Z,101060.66
2023-05-18T02:25:21.199Z,101068.97
2023-05-18T02:27:48.061Z,101071.00
2023-05-18T02:30:16.072Z,101062.88
2023-05-18T02:32:42.946Z,101061.50
2023-05-18T02:35:10.283Z,101062.38
2023-05-18T02:37:42.262Z,101061.69
2023-05-18T02:40:13.657Z,101067.25
2023-05-18T02:42:40.468Z,101063.19
2023-05-18T02:45:07.727Z,101063.88
2023-05-18T02:47:35.186Z,101070.16
2023-05-18T02:50:01.998Z,101066.97
2023-05-18T02:52:29.174Z,101064.25
2023-05-18T02:54:56.165Z,101056.63
2023-05-18T02:57:22.880Z,101061.19
2023-05-18T02:59:49.548Z,101046.97
2023-05-18T03:02:16.556Z,101050.69
2023-05-18T03:04:43.602Z,101049.16
2023-05-18T03:07:10.589Z,101051.03
2023-05-18T03:09:37.665Z,101051.69
2023-05-18T03:12:04.712Z,101059.31
2023-05-18T03:14:31.328Z,101061.19
2023-05-18T03:16:58.170Z,101054.75
2023-05-18T03:19:25.042Z,101060.19
2023-05-18T03:21:51.858Z,101061.03
2023-05-18T03:24:18.612Z,101061.19
2023-05-18T03:26:45.264Z,101057.47
2023-05-18T03:29:13.601Z,101064.44
2023-05-18T03:31:41.074Z,101061.34
2023-05-18T03:34:07.732Z,101063.41
2023-05-18T03:36:35.708Z,101062.53
2023-05-18T03:39:02.536Z,101072.38
2023-05-18T03:41:30.171Z,101071.03
2023-05-18T03:43:57.057Z,101068.31
2023-05-18T03:46:24.229Z,101073.72
2023-05-18T03:48:53.908Z,101071.03
2023-05-18T03:51:20.912Z,101079.16
2023-05-18T03:53:47.894Z,101076.75
2023-05-18T03:56:14.515Z,101079.31
2023-05-18T03:58:42.382Z,101075.41
2023-05-18T04:01:09.380Z,101077.13
2023-05-18T04:03:36.015Z,101083.88
2023-05-18T04:06:02.700Z,101089.81
2023-05-18T04:08:30.324Z,101090.31
2023-05-18T04:10:57.209Z,101084.88
2023-05-18T04:13:23.859Z,101084.22
2023-05-18T04:15:50.554Z,101095.59
2023-05-18T04:18:17.262Z,101089.81
2023-05-18T04:20:46.059Z,101091.00
2023-05-18T04:23:12.503Z,101095.41
2023-05-18T04:25:39.555Z,101098.78
2023-05-18T04:28:06.321Z,101094.53
2023-05-18T04:30:33.167Z,101102.50
2023-05-18T04:33:00.680Z,101110.13
2023-05-18T04:35:27.728Z,101111.00
2023-05-18T04:37:54.686Z,101116.78
2023-05-18T04:40:21.496Z,101129.19
2023-05-18T04:42:48.827Z,101120.09
2023-05-18T04:45:20.505Z,101123.31
2023-05-18T04:47:48.534Z,101125.91
2023-05-18T04:50:19.531Z,101130.22
2023-05-18T04:52:49.074Z,101133.94
2023-05-18T04:55:30.974Z,101136.97
2023-05-18T04:57:58.030Z,101140.06
2023-05-18T05:00:26.338Z,101135.69
2023-05-18T05:02:53.726Z,101141.56
2023-05-18T05:05:24.543Z,101142.69
2023-05-18T05:07:52.423Z,101145.66
2023-05-18T05:10:20.764Z,101149.63
2023-05-18T05:12:49.594Z,101148.78
2023-05-18T05:15:17.503Z,101161.59
2023-05-18T05:17:44.357Z,101154.59
2023-05-18T05:20:11.404Z,101152.56
2023-05-18T05:22:38.216Z,101158.84
2023-05-18T05:25:06.181Z,101157.38
2023-05-18T05:27:33.475Z,101165.94
2023-05-18T05:30:00.247Z,101168.84
2023-05-18T05:32:27.078Z,101164.75
2023-05-18T05:34:53.876Z,101177.25
2023-05-18T05:37:20.843Z,101176.22
2023-05-18T05:39:47.712Z,101182.66
2023-05-18T05:42:14.928Z,101183.53
2023-05-18T05:44:41.492Z,101175.94
2023-05-18T05:47:08.776Z,101176.00
2023-05-18T05:49:35.459Z,101170.06
2023-05-18T05:52:02.662Z,101177.97
2023-05-18T05:54:29.308Z,101172.56
2023-05-18T05:56:55.933Z,101178.88
2023-05-18T05:59:22.568Z,101177.38
2023-05-18T06:01:49.539Z,101184.88
2023-05-18T06:04:16.297Z,101179.97
2023-05-18T06:06:43.975Z,101182.69
2023-05-18T06:09:10.969Z,101187.47
2023-05-18T06:11:38.010Z,101189.16
2023-05-18T06:14:04.818Z,101191.41
2023-05-18T06:16:32.092Z,101203.81
2023-05-18T06:18:59.040Z,101208.78
2023-05-18T06:21:25.925Z,101201.38
2023-05-18T06:23:52.593Z,101210.53
2023-05-18T06:26:19.293Z,101205.44
2023-05-18T06:28:45.993Z,101212.66
2023-05-18T06:31:13.061Z,101208.00
2023-05-18T06:33:39.987Z,101210.09
2023-05-18T06:36:06.812Z,101200.63
2023-05-18T06:38:33.472Z,101203.69
2023-05-18T06:41:00.243Z,101200.63
2023-05-18T06:43:28.553Z,101192.84
2023-05-18T06:45:56.038Z,101194.94
2023-05-18T06:48:25.963Z,101201.00
2023-05-18T06:50:52.796Z,101205.84
2023-05-18T06:53:19.452Z,101196.63
2023-05-18T06:55:46.150Z,101203.31
2023-05-18T06:58:13.223Z,101213.16
2023-05-18T07:00:39.883Z,101211.31
2023-05-18T07:03:06.837Z,101196.66
2023-05-18T07:05:33.936Z,101195.75
2023-05-18T07:08:01.673Z,101201.69
2023-05-18T07:10:28.973Z,101206.47
2023-05-18T07:12:56.285Z,101189.81
2023-05-18T07:15:25.848Z,101190.44
2023-05-18T07:17:52.769Z,101192.41
2023-05-18T07:20:19.562Z,101188.63
2023-05-18T07:22:46.244Z,101201.72
2023-05-18T07:25:12.947Z,101203.78
2023-05-18T07:27:39.637Z,101205.56
2023-05-18T07:30:08.076Z,101193.00
2023-05-18T07:32:34.796Z,101199.16
2023-05-18T07:35:01.642Z,101197.72
2023-05-18T07:37:28.239Z,101193.03
2023-05-18T07:39:54.823Z,101194.63
2023-05-18T07:42:21.425Z,101185.59
2023-05-18T07:44:48.093Z,101194.56
2023-05-18T07:47:14.680Z,101195.66
2023-05-18T07:49:41.497Z,101182.28
2023-05-18T07:52:08.363Z,101196.91
2023-05-18T07:54:36.269Z,101199.75
2023-05-18T07:57:04.233Z,101198.72
2023-05-18T07:59:35.217Z,101192.75
2023-05-18T08:02:02.385Z,101184.78
2023-05-18T08:04:29.185Z,101180.47
2023-05-18T08:07:00.042Z,101180.00
2023-05-18T08:09:27.368Z,101182.63
2023-05-18T08:11:54.180Z,101185.91
2023-05-18T08:14:21.669Z,101183.56
2023-05-18T08:16:48.651Z,101176.34
2023-05-18T08:19:15.395Z,101182.50
2023-05-18T08:21:42.109Z,101171.91
2023-05-18T08:24:09.429Z,101183.94
2023-05-18T08:26:36.318Z,101186.25
2023-05-18T08:29:09.689Z,101186.78
2023-05-18T08:31:37.993Z,101178.78
2023-05-18T08:34:06.178Z,101179.88
2023-05-18T08:36:34.443Z,101175.72
2023-05-18T08:39:02.873Z,101177.44
2023-05-18T08:41:32.071Z,101177.94
2023-05-18T08:44:06.735Z,101174.91
2023-05-18T08:46:48.101Z,101168.09
2023-05-18T08:49:17.020Z,101168.91
2023-05-18T08:51:46.358Z,101170.81
2023-05-18T08:54:19.676Z,101177.84
2023-05-18T08:56:47.195Z,101166.31
2023-05-18T08:59:18.577Z,101165.03
2023-05-18T09:01:45.530Z,101162.31
2023-05-18T09:04:12.982Z,101156.31
2023-05-18T09:06:41.127Z,101157.31
2023-05-18T09:09:07.570Z,101154.75
2023-05-18T09:11:35.447Z,101158.56
2023-05-18T09:14:02.604Z,101155.72
2023-05-18T09:16:30.269Z,101159.72
2023-05-18T09:18:57.317Z,101154.50
2023-05-18T09:21:23.899Z,101150.69
2023-05-18T09:23:51.097Z,101164.41
2023-05-18T09:26:19.600Z,101150.69
2023-05-18T09:28:47.705Z,101156.91
2023-05-18T09:31:19.101Z,101155.31
2023-05-18T09:33:47.242Z,101165.13
2023-05-18T09:36:17.294Z,101157.44
2023-05-18T09:38:46.926Z,101159.22
2023-05-18T09:41:17.884Z,101159.38
2023-05-18T09:43:46.398Z,101160.13
2023-05-18T09:46:13.839Z,101163.94
2023-05-18T09:48:46.290Z,101165.03
2023-05-18T09:51:16.978Z,101166.28
2023-05-18T09:53:49.421Z,101166.59
2023-05-18T09:56:18.017Z,101166.47
2023-05-18T09:58:45.600Z,101176.84
2023-05-18T10:01:12.324Z,101181.41
2023-05-18T10:03:39.309Z,101172.59
2023-05-18T10:06:08.596Z,101178.91
2023-05-18T10:08:36.458Z,101171.13
2023-05-18T10:11:03.744Z,101176.16
2023-05-18T10:13:31.978Z,101165.00
2023-05-18T10:16:01.334Z,101167.78
2023-05-18T10:18:30.476Z,101179.56
2023-05-18T10:21:00.344Z,101192.25
2023-05-18T10:23:31.969Z,101176.81
2023-05-18T10:25:59.718Z,101173.09
2023-05-18T10:28:29.010Z,101173.44
2023-05-18T10:30:57.359Z,101169.44
2023-05-18T10:33:29.602Z,101167.69
2023-05-18T10:35:57.472Z,101167.03
2023-05-18T10:38:28.425Z,101174.69
2023-05-18T10:40:57.052Z,101167.97
2023-05-18T10:43:28.072Z,101162.63
2023-05-18T10:46:00.117Z,101159.75
2023-05-18T10:48:28.330Z,101159.75
2023-05-18T10:50:57.120Z,101162.44
2023-05-18T10:53:32.187Z,101159.69
2023-05-18T10:55:59.100Z,101148.25
2023-05-18T10:58:27.664Z,101147.13
2023-05-18T11:00:57.735Z,101145.09
2023-05-18T11:03:26.962Z,101141.75
2023-05-18T11:06:10.899Z,101145.66
2023-05-18T11:08:48.165Z,101150.03
2023-05-18T11:11:18.007Z,101153.59
2023-05-18T11:13:49.121Z,101153.22
2023-05-18T11:16:17.259Z,101149.38
2023-05-18T11:18:49.508Z,101141.66
2023-05-18T11:21:25.480Z,101149.41
2023-05-18T11:24:13.623Z,101147.06
2023-05-18T11:26:40.942Z,101146.97
2023-05-18T11:29:30.263Z,101146.47
2023-05-18T11:31:57.481Z,101158.28
2023-05-18T11:34:45.459Z,101157.03
2023-05-18T11:37:14.140Z,101153.84
2023-05-18T11:39:51.811Z,101150.91
2023-05-18T11:42:33.039Z,101152.88
2023-05-18T11:45:09.280Z,101157.41
2023-05-18T11:47:36.934Z,101157.81
2023-05-18T11:50:07.777Z,101152.38
2023-05-18T11:52:48.612Z,101150.28
2023-05-18T11:55:16.614Z,101162.03
2023-05-18T11:57:45.632Z,101151.97
2023-05-18T12:00:13.010Z,101140.34
2023-05-18T12:02:43.535Z,101141.41
2023-05-18T12:05:10.856Z,101144.31
2023-05-18T12:07:38.932Z,101148.34
2023-05-18T12:10:09.307Z,101141.41
2023-05-18T12:12:36.535Z,101149.44
2023-05-18T12:15:08.026Z,101148.38
2023-05-18T12:17:39.192Z,101134.25
2023-05-18T12:20:07.934Z,101142.75
2023-05-18T12:22:34.570Z,101147.13
2023-05-18T12:25:01.266Z,101144.13
2023-05-18T12:27:27.900Z,101145.16
2023-05-18T12:29:54.717Z,101140.97
2023-05-18T12:32:21.403Z,101147.84
2023-05-18T12:34:48.090Z,101142.25
2023-05-18T12:37:14.799Z,101132.59
2023-05-18T12:39:41.432Z,101135.50
2023-05-18T12:42:12.922Z,101131.53
2023-05-18T12:44:45.146Z,101134.47
2023-05-18T12:47:13.403Z,101123.72
2023-05-18T12:49:41.616Z,101130.34
2023-05-18T12:52:17.678Z,101126.78
2023-05-18T12:54:55.418Z,101118.88
2023-05-18T12:57:25.526Z,101123.97
2023-05-18T12:59:54.196Z,101125.00
2023-05-18T13:02:33.012Z,101123.72
2023-05-18T13:05:10.957Z,101111.50
2023-05-18T13:07:42.683Z,101112.34
2023-05-18T13:10:16.959Z,101120.34
2023-05-18T13:12:48.916Z,101104.38
2023-05-18T13:15:19.983Z,101109.41
2023-05-18T13:17:52.733Z,101106.25
2023-05-18T13:20:19.642Z,101099.22
2023-05-18T13:22:46.386Z,101096.34
2023-05-18T13:25:13.088Z,101094.44
2023-05-18T13:27:39.741Z,101098.47
2023-05-18T13:30:07.162Z,101088.56
2023-05-18T13:32:34.261Z,101093.41
2023-05-18T13:35:00.992Z,101089.41
2023-05-18T13:37:27.660Z,101096.13
2023-05-18T13:39:54.325Z,101094.25
2023-05-18T13:42:21.671Z,101092.13
2023-05-18T13:44:48.361Z,101084.44
2023-05-18T13:47:15.037Z,101088.84
2023-05-18T13:49:41.678Z,101087.16
2023-05-18T13:52:08.285Z,101076.28
2023-05-18T13:54:34.995Z,101081.97
2023-05-18T13:57:02.359Z,101076.00
2023-05-18T13:59:29.098Z,101084.44
2023-05-18T14:01:55.881Z,101071.66
2023-05-18T14:04:22.548Z,101064.16
2023-05-18T14:06:49.594Z,101072.78
2023-05-18T14:09:16.244Z,101075.41
2023-05-18T14:11:42.837Z,101057.66
2023-05-18T14:14:09.454Z,101064.44
2023-05-18T14:16:36.973Z,101059.28
2023-05-18T14:19:03.618Z,101063.44
2023-05-18T14:21:31.292Z,101053.97
2023-05-18T14:23:57.917Z,101062.78
2023-05-18T14:26:24.500Z,101054.06
2023-05-18T14:28:51.339Z,101057.47
2023-05-18T14:31:17.956Z,101055.59
2023-05-18T14:33:44.575Z,101045.09
2023-05-18T14:36:11.301Z,101043.41
2023-05-18T14:38:38.000Z,101058.97
2023-05-18T14:41:04.659Z,101061.53
2023-05-18T14:43:31.204Z,101048.47
2023-05-18T14:46:08.190Z,101048.69
2023-05-18T14:48:35.460Z,101053.53
2023-05-18T14:51:02.104Z,101055.44
2023-05-18T14:53:28.678Z,101051.66
2023-05-18T14:55:55.262Z,101054.19
2023-05-18T14:58:21.900Z,101051.84
2023-05-18T15:00:48.545Z,101055.19
2023-05-18T15:03:15.712Z,101048.22
2023-05-18T15:05:44.342Z,101047.06
2023-05-18T15:08:10.991Z,101056.09
2023-05-18T15:10:37.579Z,101055.44
2023-05-18T15:13:04.175Z,101054.84
2023-05-18T15:15:30.944Z,101056.72
2023-05-18T15:17:57.578Z,101056.69
2023-05-18T15:20:24.531Z,101047.06
2023-05-18T15:22:51.189Z,101049.19
2023-05-18T15:25:17.895Z,101046.84
2023-05-18T15:27:44.779Z,101043.88
2023-05-18T15:30:12.746Z,101043.88
2023-05-18T15:32:40.679Z,101050.81
2023-05-18T15:35:08.338Z,101052.09
2023-05-18T15:37:35.047Z,101055.47
2023-05-18T15:40:02.106Z,101058.19
2023-05-18T15:42:28.708Z,101054.19
2023-05-18T15:44:55.703Z,101049.97
2023-05-18T15:47:22.410Z,101047.91
2023-05-18T15:49:49.321Z,101049.56
2023-05-18T15:52:16.045Z,101053.78
2023-05-18T15:54:42.773Z,101045.38
2023-05-18T15:57:09.521Z,101052.91
2023-05-18T15:59:36.217Z,101059.66
2023-05-18T16:02:03.169Z,101059.03
2023-05-18T16:04:29.756Z,101053.38
2023-05-18T16:06:56.457Z,101048.72
2023-05-18T16:09:23.066Z,101046.19
2023-05-18T16:11:49.819Z,101039.50
2023-05-18T16:14:16.605Z,101042.22
2023-05-18T16:16:43.304Z,101031.41
2023-05-18T16:19:10.275Z,101047.06
2023-05-18T16:21:37.078Z,101038.41
2023-05-18T16:24:04.187Z,101038.00
2023-05-18T16:26:33.158Z,101034.88
2023-05-18T16:29:00.251Z,101042.41
2023-05-18T16:31:26.970Z,101043.72
2023-05-18T16:33:53.790Z,101040.56
2023-05-18T16:36:20.972Z,101043.31
2023-05-18T16:38:47.726Z,101042.25
2023-05-18T16:41:16.407Z,101044.97
2023-05-18T16:43:46.365Z,101045.81
2023-05-18T16:46:13.246Z,101053.81
2023-05-18T16:48:39.887Z,101059.09
2023-05-18T16:51:07.028Z,101059.72
2023-05-18T16:53:34.427Z,101056.97
2023-05-18T16:56:01.570Z,101060.97
2023-05-18T16:58:28.177Z,101065.59
2023-05-18T17:00:55.019Z,101064.13
2023-05-18T17:03:21.856Z,101060.75
2023-05-18T17:05:48.850Z,101070.66
2023-05-18T17:08:15.719Z,101064.13
2023-05-18T17:10:42.480Z,101071.31
2023-05-18T17:13:09.171Z,101061.81
2023-05-18T17:15:36.024Z,101064.50
2023-05-18T17:18:02.629Z,101073.81
2023-05-18T17:20:29.460Z,101075.78
2023-05-18T17:22:56.283Z,101086.69
2023-05-18T17:25:23.013Z,101073.59
2023-05-18T17:27:49.687Z,101087.09
2023-05-18T17:30:16.357Z,101076.34
2023-05-18T17:32:45.560Z,101083.88
2023-05-18T17:35:14.258Z,101084.81
2023-05-18T17:37:41.658Z,101074.88
2023-05-18T17:40:09.735Z,101086.59
2023-05-18T17:42:36.957Z,101083.31
2023-05-18T17:45:04.027Z,101079.81
2023-05-18T17:47:30.738Z,101085.75
2023-05-18T17:49:57.447Z,101080.97
2023-05-18T17:52:24.146Z,101084.41
2023-05-18T17:54:52.289Z,101084.91
2023-05-18T17:57:18.963Z,101083.72
2023-05-18T17:59:45.853Z,101088.91
2023-05-18T18:02:14.205Z,101090.22
2023-05-18T18:04:40.894Z,101086.19
2023-05-18T18:07:08.109Z,101090.22
2023-05-18T18:09:34.764Z,101087.63
2023-05-18T18:12:02.082Z,101089.34
2023-05-18T18:14:28.791Z,101091.00
2023-05-18T18:16:57.150Z,101093.94
2023-05-18T18:19:25.260Z,101083.63
2023-05-18T18:21:52.013Z,101090.13
2023-05-18T18:24:18.691Z,101094.94
2023-05-18T18:26:45.289Z,101096.53
2023-05-18T18:29:11.919Z,101091.88
2023-05-18T18:31:38.608Z,101099.19
2023-05-18T18:34:05.361Z,101100.75
2023-05-18T18:36:32.465Z,101103.41
2023-05-18T18:38:59.172Z,101100.81
2023-05-18T18:41:25.922Z,101098.00
2023-05-18T18:43:54.160Z,101113.28
2023-05-18T18:46:21.453Z,101104.44
2023-05-18T18:48:48.227Z,101108.84
2023-05-18T18:51:14.948Z,101111.56
2023-05-18T18:53:41.661Z,101119.28
2023-05-18T18:56:08.284Z,101122.59
2023-05-18T18:58:35.172Z,101118.06
2023-05-18T19:01:01.920Z,101122.03
2023-05-18T19:03:29.275Z,101130.00
2023-05-18T19:05:56.125Z,101134.81
2023-05-18T19:08:22.836Z,101135.22
2023-05-18T19:10:49.523Z,101139.56
2023-05-18T19:13:16.229Z,101143.22
2023-05-18T19:15:42.886Z,101141.47
2023-05-18T19:18:09.511Z,101143.19
2023-05-18T19:20:36.186Z,101154.47
2023-05-18T19:23:05.911Z,101155.09
2023-05-18T19:25:32.995Z,101157.09
2023-05-18T19:28:00.154Z,101158.59
2023-05-18T19:30:27.114Z,101167.53
2023-05-18T19:32:54.165Z,101164.31
2023-05-18T19:35:23.736Z,101162.16
2023-05-18T19:37:51.945Z,101167.31
2023-05-18T19:40:18.696Z,101168.84
2023-05-18T19:42:45.717Z,101168.63
2023-05-18T19:45:12.523Z,101179.44
2023-05-18T19:47:39.274Z,101166.88
2023-05-18T19:50:07.057Z,101175.84
2023-05-18T19:52:33.999Z,101174.38
2023-05-18T19:55:00.606Z,101184.22
2023-05-18T19:57:27.367Z,101176.06
2023-05-18T19:59:54.024Z,101184.03
2023-05-18T20:02:20.805Z,101180.84
2023-05-18T20:04:49.070Z,101184.59
2023-05-18T20:07:17.114Z,101186.38
2023-05-18T20:09:44.169Z,101183.00
2023-05-18T20:12:11.141Z,101194.72
2023-05-18T20:14:39.292Z,101187.22
2023-05-18T20:17:13.131Z,101182.31
2023-05-18T20:19:41.355Z,101183.34
2023-05-18T20:22:10.934Z,101193.75
2023-05-18T20:24:38.735Z,101193.66
2023-05-18T20:27:05.590Z,101183.63
2023-05-18T20:29:32.596Z,101192.25
2023-05-18T20:31:59.387Z,101188.97
2023-05-18T20:34:26.384Z,101194.22
2023-05-18T20:36:53.443Z,101195.56
2023-05-18T20:39:20.500Z,101187.78
2023-05-18T20:41:48.025Z,101196.50
2023-05-18T20:44:17.778Z,101196.16
2023-05-18T20:46:44.806Z,101201.41
2023-05-18T20:49:15.696Z,101204.41
2023-05-18T20:51:42.997Z,101205.00
2023-05-18T20:54:10.615Z,101196.44
2023-05-18T20:56:38.682Z,101196.63
2023-05-18T20:59:06.479Z,101191.63
2023-05-18T21:01:39.740Z,101195.41
2023-05-18T21:04:07.169Z,101194.56
2023-05-18T21:06:34.556Z,101187.78
2023-05-18T21:09:01.844Z,101201.59
2023-05-18T21:11:28.651Z,101202.41
2023-05-18T21:13:58.058Z,101200.91
2023-05-18T21:16:24.956Z,101204.94
2023-05-18T21:18:52.019Z,101210.38
2023-05-18T21:21:18.653Z,101214.97
2023-05-18T21:23:45.706Z,101215.44
2023-05-18T21:26:12.521Z,101215.44
2023-05-18T21:28:39.152Z,101220.88
2023-05-18T21:31:06.170Z,101223.31
2023-05-18T21:33:33.073Z,101219.56
2023-05-18T21:36:01.709Z,101226.69
2023-05-18T21:38:28.852Z,101217.78
2023-05-18T21:40:56.695Z,101224.63
2023-05-18T21:43:23.862Z,101221.72
2023-05-18T21:45:50.604Z,101220.88
2023-05-18T21:48:17.272Z,101221.91
2023-05-18T21:50:43.864Z,101218.72
2023-05-18T21:53:10.748Z,101217.69
2023-05-18T21:55:37.590Z,101221.34
2023-05-18T21:58:04.247Z,101215.50
2023-05-18T22:00:31.498Z,101216.34
2023-05-18T22:02:58.738Z,101206.41
2023-05-18T22:05:25.585Z,101217.63
2023-05-18T22:07:52.428Z,101208.47
2023-05-18T22:10:19.141Z,101210.13
2023-05-18T22:12:46.042Z,101206.75
2023-05-18T22:15:12.718Z,101205.25
2023-05-18T22:17:39.886Z,101200.38
2023-05-18T22:20:08.858Z,101204.94
2023-05-18T22:22:35.771Z,101208.72
2023-05-18T22:25:02.448Z,101204.66
2023-05-18T22:27:29.297Z,101204.34
2023-05-18T22:29:56.181Z,101207.75
2023-05-18T22:32:23.081Z,101210.13
2023-05-18T22:34:49.732Z,101215.72
2023-05-18T22:37:16.328Z,101225.09
2023-05-18T22:39:43.970Z,101213.78
2023-05-18T22:42:10.975Z,101217.69
2023-05-18T22:44:37.616Z,101221.00
2023-05-18T22:47:04.405Z,101223.63
2023-05-18T22:49:31.127Z,101217.84
2023-05-18T22:51:57.822Z,101225.81
2023-05-18T22:54:24.449Z,101224.13
2023-05-18T22:56:51.272Z,101230.25
2023-05-18T22:59:17.896Z,101223.28
2023-05-18T23:01:44.478Z,101217.84
2023-05-18T23:04:13.281Z,101222.78
2023-05-18T23:06:41.296Z,101224.84
2023-05-18T23:09:08.075Z,101215.66
2023-05-18T23:11:35.039Z,101223.16
2023-05-18T23:14:02.748Z,101221.84
2023-05-18T23:16:29.742Z,101212.81
2023-05-18T23:18:58.734Z,101235.44
2023-05-18T23:21:25.649Z,101224.19
2023-05-18T23:23:52.192Z,101221.84
2023-05-18T23:26:18.804Z,101221.38
2023-05-18T23:28:45.400Z,101210.84
2023-05-18T23:31:11.993Z,101216.09
2023-05-18T23:33:38.988Z,101204.94
2023-05-18T23:36:06.467Z,101208.00
2023-05-18T23:38:35.057Z,101204.47
2023-05-18T23:41:05.048Z,101208.56
2023-05-18T23:43:31.973Z,101202.63
2023-05-18T23:45:59.837Z,101206.41
2023-05-18T23:48:32.277Z,101211.84
2023-05-18T23:51:01.610Z,101204.22
2023-05-18T23:53:32.224Z,101208.81
2023-05-18T23:55:59.875Z,101214.81
2023-05-18T23:58:31.684Z,101216.31
